Time;durP1;ratioP1;P1;durP2;ratioP2;P2;SDS_P1;SDS_P2;PMS_P1;PMS_P2;Temp;Humidity;BMP_temperature;BMP_pressure;BME280_temperature;BME280_humidity;BME280_pressure;Samples;Min_cycle;Max_cycle;Signal;HPM_P1;HPM_P2
2023/12/27 00:01:55;;;;;;;26.53;17.10;;;10.70;97.50;;;;;;5081806;28;20235;-62
2023/12/27 00:04:22;;;;;;;27.83;16.27;;;10.80;97.50;;;;;;5083396;28;20208;-60
2023/12/27 00:06:52;;;;;;;25.83;15.77;;;10.70;97.40;;;;;;5080380;28;20852;-61
2023/12/27 00:09:19;;;;;;;23.53;14.80;;;10.70;97.40;;;;;;5085157;28;20205;-61
2023/12/27 00:11:46;;;;;;;26.40;17.00;;;10.70;97.30;;;;;;5080842;28;20208;-61
2023/12/27 00:14:13;;;;;;;29.77;18.10;;;10.70;97.30;;;;;;5084995;28;20223;-61
2023/12/27 00:16:41;;;;;;;24.80;15.50;;;10.70;97.40;;;;;;5084187;28;20208;-61
2023/12/27 00:19:08;;;;;;;26.13;16.17;;;10.70;97.30;;;;;;5080477;28;20209;-62
2023/12/27 00:21:35;;;;;;;28.40;15.43;;;10.60;97.30;;;;;;5086984;28;20404;-61
2023/12/27 00:24:03;;;;;;;25.87;16.53;;;10.60;97.30;;;;;;5085342;28;20208;-62
2023/12/27 00:26:30;;;;;;;24.83;15.73;;;10.60;97.30;;;;;;5081362;28;20519;-61
2023/12/27 00:28:59;;;;;;;22.43;15.43;;;10.60;97.30;;;;;;5079686;28;20223;-60
2023/12/27 00:31:27;;;;;;;25.17;16.30;;;10.60;97.30;;;;;;5096000;28;20200;-61
2023/12/27 00:33:55;;;;;;;24.70;15.03;;;10.60;97.40;;;;;;5081056;28;20520;-62
2023/12/27 00:36:29;;;;;;;26.07;16.30;;;10.60;97.40;;;;;;5082987;28;20225;-60
2023/12/27 00:38:57;;;;;;;27.63;15.93;;;10.60;97.40;;;;;;5082870;28;20204;-61
2023/12/27 00:41:24;;;;;;;29.00;17.87;;;10.60;97.40;;;;;;5082250;28;20277;-63
2023/12/27 00:43:51;;;;;;;25.00;16.03;;;10.60;97.40;;;;;;5086671;28;20291;-62
2023/12/27 00:46:18;;;;;;;29.77;15.97;;;10.60;97.50;;;;;;5079823;28;20275;-61
2023/12/27 00:48:45;;;;;;;24.00;14.50;;;10.60;97.40;;;;;;5084788;28;20201;-62
2023/12/27 00:51:19;;;;;;;28.23;15.97;;;10.60;97.40;;;;;;5082773;28;20266;-61
2023/12/27 00:53:48;;;;;;;26.17;16.53;;;10.60;97.40;;;;;;5084890;28;20225;-61
2023/12/27 00:56:16;;;;;;;28.07;15.90;;;10.60;97.50;;;;;;5085540;28;20215;-61
2023/12/27 00:58:43;;;;;;;25.43;15.83;;;10.60;97.40;;;;;;5090753;28;20301;-62
2023/12/27 01:01:11;;;;;;;28.33;16.90;;;10.60;97.40;;;;;;5083646;28;20209;-61
2023/12/27 01:03:39;;;;;;;23.43;15.23;;;10.60;97.40;;;;;;5081356;28;20283;-61
2023/12/27 01:06:09;;;;;;;26.43;15.70;;;10.60;97.40;;;;;;5081463;28;20218;-61
2023/12/27 01:08:37;;;;;;;22.53;15.47;;;10.60;97.40;;;;;;5085187;28;20288;-60
2023/12/27 01:11:04;;;;;;;25.33;15.73;;;10.60;97.40;;;;;;5083934;28;20189;-61
2023/12/27 01:13:32;;;;;;;25.80;15.10;;;10.60;97.40;;;;;;5078301;28;20200;-61
2023/12/27 01:16:00;;;;;;;28.83;16.00;;;10.60;97.30;;;;;;5082132;28;20196;-61
2023/12/27 01:18:27;;;;;;;23.47;15.47;;;10.60;97.30;;;;;;5081385;28;20641;-60
2023/12/27 01:20:54;;;;;;;26.97;16.50;;;10.60;97.40;;;;;;5084362;28;20200;-61
2023/12/27 01:23:21;;;;;;;24.10;16.33;;;10.60;97.40;;;;;;5069514;28;20219;-61
2023/12/27 01:25:48;;;;;;;29.57;15.63;;;10.60;97.40;;;;;;5078750;28;20228;-61
2023/12/27 01:28:16;;;;;;;24.63;15.33;;;10.60;97.40;;;;;;5080622;28;20196;-61
2023/12/27 01:30:43;;;;;;;25.57;14.90;;;10.60;97.40;;;;;;5083623;28;20274;-60
2023/12/27 01:33:11;;;;;;;28.17;16.03;;;10.60;97.40;;;;;;5083138;28;20201;-62
2023/12/27 01:35:38;;;;;;;22.37;15.63;;;10.60;97.40;;;;;;5080713;28;20618;-62
2023/12/27 01:38:05;;;;;;;23.43;16.70;;;10.60;97.40;;;;;;5080745;28;20263;-61
2023/12/27 01:40:32;;;;;;;31.23;16.53;;;10.60;97.40;;;;;;5081729;28;20200;-61
2023/12/27 01:42:59;;;;;;;25.87;16.43;;;10.60;97.40;;;;;;5082539;28;20260;-60
2023/12/27 01:45:26;;;;;;;28.67;15.93;;;10.60;97.40;;;;;;5088696;28;20220;-62
2023/12/27 01:47:54;;;;;;;26.77;15.63;;;10.60;97.30;;;;;;5083880;28;20208;-61
2023/12/27 01:50:22;;;;;;;25.63;16.13;;;10.60;97.20;;;;;;5081551;28;20193;-61
2023/12/27 01:52:49;;;;;;;27.77;15.30;;;10.60;97.30;;;;;;5082751;28;20203;-61
2023/12/27 01:55:16;;;;;;;26.97;15.87;;;10.60;97.30;;;;;;5083942;28;20691;-61
2023/12/27 01:57:44;;;;;;;21.93;14.40;;;10.50;97.40;;;;;;5083246;28;20291;-62
2023/12/27 02:00:12;;;;;;;26.93;15.20;;;10.50;97.40;;;;;;5082434;28;20204;-60
2023/12/27 02:02:41;;;;;;;26.30;16.07;;;10.50;97.30;;;;;;5082724;28;20319;-61
2023/12/27 02:05:09;;;;;;;20.47;14.73;;;10.50;97.30;;;;;;5081976;28;20205;-61
2023/12/27 02:07:37;;;;;;;25.10;15.63;;;10.50;97.40;;;;;;5084510;28;20246;-61
2023/12/27 02:10:06;;;;;;;25.77;16.03;;;10.50;97.50;;;;;;5083832;28;20364;-61
2023/12/27 02:12:33;;;;;;;22.87;14.27;;;10.50;97.50;;;;;;5080605;28;20235;-61
2023/12/27 02:15:00;;;;;;;29.47;14.37;;;10.50;97.60;;;;;;5083886;28;20200;-61
2023/12/27 02:17:28;;;;;;;28.50;16.57;;;10.50;97.60;;;;;;5084655;28;20281;-61
2023/12/27 02:19:56;;;;;;;20.97;15.87;;;10.50;97.60;;;;;;5080280;28;20542;-61
2023/12/27 02:22:25;;;;;;;23.03;15.77;;;10.40;97.60;;;;;;5084961;28;20291;-61
2023/12/27 02:24:56;;;;;;;35.07;17.10;;;10.40;97.60;;;;;;5076291;28;20261;-61
2023/12/27 02:27:23;;;;;;;28.97;15.40;;;10.40;97.60;;;;;;5088729;28;20211;-62
2023/12/27 02:29:50;;;;;;;25.77;15.97;;;10.40;97.70;;;;;;5082983;28;20208;-61
2023/12/27 02:32:17;;;;;;;23.40;16.17;;;10.40;97.70;;;;;;5101831;28;20215;-62
2023/12/27 02:34:45;;;;;;;24.27;15.63;;;10.40;97.70;;;;;;5080981;28;20193;-62
2023/12/27 02:37:12;;;;;;;27.63;15.30;;;10.40;97.70;;;;;;5078553;28;20262;-61
2023/12/27 02:39:39;;;;;;;23.30;15.20;;;10.40;97.70;;;;;;5080056;28;20205;-61
2023/12/27 02:42:06;;;;;;;23.23;16.20;;;10.30;98.00;;;;;;5081221;28;20208;-62
2023/12/27 02:44:33;;;;;;;25.53;16.07;;;10.30;97.70;;;;;;5083602;28;20646;-61
2023/12/27 02:47:01;;;;;;;27.37;16.57;;;10.30;97.70;;;;;;5081123;28;20728;-61
2023/12/27 02:49:29;;;;;;;22.13;15.63;;;10.30;97.70;;;;;;5084391;28;20635;-61
2023/12/27 02:51:56;;;;;;;23.37;14.50;;;10.30;97.70;;;;;;5081432;28;20197;-61
2023/12/27 02:54:24;;;;;;;25.60;16.23;;;10.30;97.70;;;;;;5081004;28;20284;-61
2023/12/27 02:56:51;;;;;;;26.87;16.37;;;10.30;97.70;;;;;;5081999;28;20207;-62
2023/12/27 02:59:18;;;;;;;26.30;16.33;;;10.30;97.80;;;;;;5085072;28;20196;-60
2023/12/27 03:01:45;;;;;;;22.07;15.80;;;10.30;97.80;;;;;;5081445;28;20321;-60
2023/12/27 03:04:12;;;;;;;23.57;16.13;;;10.30;97.90;;;;;;5082273;28;20218;-61
2023/12/27 03:06:39;;;;;;;31.93;15.60;;;10.30;97.90;;;;;;5082215;28;20211;-61
2023/12/27 03:09:06;;;;;;;26.87;17.17;;;10.30;97.90;;;;;;5078320;28;20637;-61
2023/12/27 03:11:34;;;;;;;28.97;16.20;;;10.30;98.00;;;;;;5078157;28;20216;-61
2023/12/27 03:14:02;;;;;;;24.63;15.93;;;10.30;98.00;;;;;;5082615;28;20219;-61
2023/12/27 03:16:29;;;;;;;25.60;14.83;;;10.20;98.00;;;;;;5078091;28;20200;-61
2023/12/27 03:18:57;;;;;;;24.27;13.37;;;10.20;98.00;;;;;;5075962;28;20202;-60
2023/12/27 03:21:24;;;;;;;21.73;12.20;;;10.20;97.90;;;;;;5081440;28;20201;-62
2023/12/27 03:23:52;;;;;;;18.53;11.53;;;10.20;97.90;;;;;;5090732;28;20209;-61
2023/12/27 03:26:19;;;;;;;18.23;9.93;;;10.20;97.90;;;;;;5087887;28;20212;-61
2023/12/27 03:28:46;;;;;;;21.17;11.23;;;10.20;97.90;;;;;;5074422;28;20658;-61
2023/12/27 03:31:15;;;;;;;19.37;10.33;;;10.20;97.90;;;;;;5075227;28;20205;-61
2023/12/27 03:33:44;;;;;;;17.73;9.53;;;10.20;97.90;;;;;;5081953;28;20208;-60
2023/12/27 03:36:11;;;;;;;15.17;10.47;;;10.20;97.90;;;;;;5078449;28;20188;-61
2023/12/27 03:38:39;;;;;;;17.93;10.83;;;10.20;97.90;;;;;;5087718;28;20203;-60
2023/12/27 03:41:09;;;;;;;14.97;9.57;;;10.10;97.90;;;;;;5080305;28;20251;-62
2023/12/27 03:43:36;;;;;;;14.80;9.60;;;10.10;97.90;;;;;;5081491;28;20200;-61
2023/12/27 03:46:03;;;;;;;14.13;10.50;;;10.10;97.90;;;;;;5084656;28;20215;-61
2023/12/27 03:48:30;;;;;;;14.83;9.77;;;10.10;97.90;;;;;;5082820;28;20236;-61
2023/12/27 03:50:57;;;;;;;19.27;9.73;;;10.10;97.90;;;;;;5086066;28;20201;-61
2023/12/27 03:53:25;;;;;;;15.90;11.00;;;10.10;97.90;;;;;;5083519;28;20631;-62
2023/12/27 03:55:52;;;;;;;18.30;11.57;;;10.10;97.90;;;;;;5091412;28;20579;-61
2023/12/27 03:58:19;;;;;;;15.93;10.73;;;10.10;97.90;;;;;;5082368;28;20202;-61
2023/12/27 04:00:46;;;;;;;19.53;11.17;;;10.10;97.80;;;;;;5086101;28;20211;-62
2023/12/27 04:03:14;;;;;;;18.57;10.23;;;10.10;97.80;;;;;;5090422;28;20716;-61
2023/12/27 04:05:41;;;;;;;17.20;10.63;;;10.10;97.80;;;;;;5085921;28;20212;-61
2023/12/27 04:08:10;;;;;;;14.97;10.33;;;10.10;97.80;;;;;;5083205;28;20225;-62
2023/12/27 04:10:37;;;;;;;16.20;10.03;;;10.10;97.70;;;;;;5086680;28;20204;-60
2023/12/27 04:13:04;;;;;;;17.67;10.93;;;10.10;97.70;;;;;;5082786;28;20259;-62
2023/12/27 04:15:31;;;;;;;15.67;9.97;;;10.10;97.80;;;;;;5098828;28;20198;-61
2023/12/27 04:17:58;;;;;;;16.07;9.47;;;10.10;97.80;;;;;;5082841;28;20229;-61
2023/12/27 04:20:26;;;;;;;17.63;11.00;;;10.10;97.80;;;;;;5085673;28;20205;-62
2023/12/27 04:22:53;;;;;;;13.83;8.93;;;10.10;97.80;;;;;;5080682;28;20250;-61
2023/12/27 04:25:20;;;;;;;15.90;9.73;;;10.00;97.80;;;;;;5081383;28;20246;-62
2023/12/27 04:27:47;;;;;;;15.53;10.03;;;10.10;97.80;;;;;;5086607;28;20313;-60
2023/12/27 04:30:14;;;;;;;16.63;11.20;;;10.10;97.80;;;;;;5083539;28;20203;-61
2023/12/27 04:32:41;;;;;;;18.00;11.20;;;10.00;97.70;;;;;;5079530;28;20278;-61
2023/12/27 04:35:09;;;;;;;17.30;9.90;;;10.00;97.70;;;;;;5083261;28;20196;-62
2023/12/27 04:37:36;;;;;;;13.97;9.33;;;10.10;97.80;;;;;;5078232;28;20264;-62
2023/12/27 04:40:04;;;;;;;13.03;10.57;;;10.10;97.70;;;;;;5087549;28;20223;-62
2023/12/27 04:42:31;;;;;;;15.03;9.53;;;10.00;97.60;;;;;;5080501;28;20210;-60
2023/12/27 04:44:58;;;;;;;15.33;9.10;;;10.10;97.70;;;;;;5089154;28;20202;-61
2023/12/27 04:47:26;;;;;;;13.37;9.70;;;10.00;97.60;;;;;;5083173;28;20229;-61
2023/12/27 04:49:53;;;;;;;18.77;10.07;;;10.10;97.70;;;;;;5091765;28;20201;-64
2023/12/27 04:52:21;;;;;;;15.00;9.93;;;10.00;97.60;;;;;;5080546;28;20410;-60
2023/12/27 04:54:48;;;;;;;15.23;8.97;;;10.00;97.60;;;;;;5086519;28;20294;-60
2023/12/27 04:57:15;;;;;;;17.73;10.17;;;10.00;97.60;;;;;;5086775;28;20208;-61
2023/12/27 04:59:42;;;;;;;17.10;10.67;;;10.00;97.60;;;;;;5083131;28;20208;-61
2023/12/27 05:02:09;;;;;;;18.20;9.87;;;10.00;97.70;;;;;;5083930;28;20272;-61
2023/12/27 05:04:36;;;;;;;14.60;9.33;;;10.00;97.70;;;;;;5081707;28;20262;-62
2023/12/27 05:07:04;;;;;;;14.90;10.00;;;10.00;97.70;;;;;;5088844;28;20215;-61
2023/12/27 05:09:31;;;;;;;16.87;9.90;;;10.00;97.70;;;;;;5081376;28;20288;-61
2023/12/27 05:11:58;;;;;;;15.33;9.40;;;10.00;97.70;;;;;;5079382;28;20726;-62
2023/12/27 05:14:25;;;;;;;18.23;10.57;;;10.00;97.70;;;;;;5086195;28;20207;-61
2023/12/27 05:16:55;;;;;;;16.50;10.30;;;10.00;97.60;;;;;;5083813;28;20296;-60
2023/12/27 05:19:22;;;;;;;17.37;9.57;;;10.00;97.60;;;;;;5085984;28;20203;-61
2023/12/27 05:21:50;;;;;;;16.40;9.23;;;10.00;97.60;;;;;;5081886;28;20199;-62
2023/12/27 05:24:17;;;;;;;18.67;10.63;;;10.00;97.60;;;;;;5081030;28;20206;-60
2023/12/27 05:26:44;;;;;;;16.57;9.83;;;10.10;97.60;;;;;;5091336;28;20656;-61
2023/12/27 05:29:11;;;;;;;16.53;8.70;;;10.10;97.50;;;;;;5086284;28;20200;-60
2023/12/27 05:31:38;;;;;;;13.60;9.50;;;10.10;97.40;;;;;;5082395;28;20194;-61
2023/12/27 05:34:05;;;;;;;14.47;8.97;;;10.10;97.40;;;;;;5077133;28;20203;-61
2023/12/27 05:36:32;;;;;;;10.93;7.63;;;10.10;97.40;;;;;;5083253;28;20287;-61
2023/12/27 05:39:00;;;;;;;16.37;9.50;;;10.10;97.40;;;;;;5082129;28;20662;-62
2023/12/27 05:41:27;;;;;;;9.67;8.17;;;10.00;97.30;;;;;;5086568;28;20201;-61
2023/12/27 05:43:54;;;;;;;16.10;10.50;;;10.10;97.30;;;;;;5081112;28;20647;-61
2023/12/27 05:46:22;;;;;;;15.27;9.10;;;10.00;97.20;;;;;;5084057;28;20221;-61
2023/12/27 05:48:49;;;;;;;13.57;8.77;;;10.10;97.20;;;;;;5081194;28;20240;-61
2023/12/27 05:51:16;;;;;;;13.83;9.03;;;10.00;97.10;;;;;;5080498;28;20281;-61
2023/12/27 05:53:43;;;;;;;14.00;7.87;;;10.00;97.10;;;;;;5082754;28;20315;-61
2023/12/27 05:56:10;;;;;;;11.83;8.40;;;10.00;97.10;;;;;;5083815;28;20201;-61
2023/12/27 05:58:37;;;;;;;14.03;8.60;;;10.00;97.10;;;;;;5080877;28;20635;-60
2023/12/27 06:01:05;;;;;;;11.83;8.67;;;10.00;97.10;;;;;;5083652;28;20207;-60
2023/12/27 06:03:32;;;;;;;11.33;8.20;;;10.00;97.10;;;;;;5080188;28;20204;-61
2023/12/27 06:06:00;;;;;;;12.93;8.43;;;10.00;97.10;;;;;;5084820;28;20204;-61
2023/12/27 06:08:27;;;;;;;11.10;8.57;;;9.90;97.10;;;;;;5081325;28;20247;-61
2023/12/27 06:10:54;;;;;;;13.37;8.77;;;9.90;97.10;;;;;;5088123;28;20202;-60
2023/12/27 06:13:22;;;;;;;11.53;7.10;;;9.90;97.10;;;;;;5077517;28;20639;-61
2023/12/27 06:15:49;;;;;;;17.60;10.20;;;9.90;97.20;;;;;;5084398;28;20212;-61
2023/12/27 06:18:16;;;;;;;11.53;7.67;;;9.90;97.20;;;;;;5081055;28;20650;-61
2023/12/27 06:20:43;;;;;;;15.77;8.33;;;9.90;97.10;;;;;;5081817;28;20203;-62
2023/12/27 06:23:10;;;;;;;13.37;8.67;;;9.90;97.10;;;;;;5080594;28;20234;-61
2023/12/27 06:25:37;;;;;;;18.07;8.57;;;9.90;97.00;;;;;;5083289;28;20520;-62
2023/12/27 06:28:04;;;;;;;14.87;8.83;;;9.90;96.80;;;;;;5081608;28;20211;-62
2023/12/27 06:30:31;;;;;;;14.37;8.40;;;9.90;96.80;;;;;;5081572;28;20207;-61
2023/12/27 06:32:58;;;;;;;10.73;7.93;;;9.80;96.70;;;;;;5080337;28;20191;-61
2023/12/27 06:35:26;;;;;;;16.53;8.13;;;9.80;96.80;;;;;;5082259;28;20198;-61
2023/12/27 06:37:53;;;;;;;10.63;7.47;;;9.80;96.90;;;;;;5079490;28;20604;-62
2023/12/27 06:40:20;;;;;;;14.67;8.43;;;9.80;97.20;;;;;;5084304;28;20207;-61
2023/12/27 06:42:47;;;;;;;17.90;8.07;;;9.80;97.00;;;;;;5080810;28;20261;-61
2023/12/27 06:45:14;;;;;;;14.73;9.03;;;9.80;97.00;;;;;;5076943;28;20206;-62
2023/12/27 06:47:41;;;;;;;14.40;8.67;;;9.80;97.00;;;;;;5076750;28;20215;-61
2023/12/27 06:50:09;;;;;;;16.13;9.40;;;9.80;97.10;;;;;;5084574;28;20223;-61
2023/12/27 06:52:36;;;;;;;17.07;10.83;;;9.80;97.10;;;;;;5082216;28;20306;-61
2023/12/27 06:55:04;;;;;;;15.83;9.77;;;9.80;97.10;;;;;;5086300;28;20192;-61
2023/12/27 06:57:31;;;;;;;17.80;10.03;;;9.80;97.10;;;;;;5078893;28;20204;-61
2023/12/27 06:59:58;;;;;;;16.03;10.17;;;9.80;97.10;;;;;;5080195;28;20284;-62
2023/12/27 07:02:25;;;;;;;13.37;9.60;;;9.80;97.10;;;;;;5080310;28;20246;-61
2023/12/27 07:04:52;;;;;;;17.43;9.70;;;9.80;97.10;;;;;;5083320;28;20305;-61
2023/12/27 07:07:20;;;;;;;13.33;9.33;;;9.80;97.10;;;;;;5080707;28;20253;-61
2023/12/27 07:09:47;;;;;;;16.50;9.37;;;9.80;97.10;;;;;;5080235;28;20203;-60
2023/12/27 07:12:14;;;;;;;18.80;8.50;;;9.80;97.10;;;;;;5077002;28;20257;-61
2023/12/27 07:14:42;;;;;;;14.20;8.57;;;9.80;97.10;;;;;;5080214;28;20508;-61
2023/12/27 07:17:10;;;;;;;14.03;9.07;;;9.80;97.10;;;;;;5085243;28;20195;-62
2023/12/27 07:19:37;;;;;;;19.33;9.23;;;9.80;97.20;;;;;;5080750;28;20188;-61
2023/12/27 07:22:04;;;;;;;15.87;9.40;;;9.80;97.20;;;;;;5085440;28;20194;-61
2023/12/27 07:24:31;;;;;;;14.27;9.13;;;9.80;97.20;;;;;;5081910;28;20595;-61
2023/12/27 07:26:58;;;;;;;14.40;8.97;;;9.80;97.20;;;;;;5082563;28;20634;-61
2023/12/27 07:29:25;;;;;;;16.93;10.70;;;9.80;97.20;;;;;;5085864;28;20215;-60
2023/12/27 07:31:52;;;;;;;19.03;10.00;;;9.80;97.30;;;;;;5084955;28;20201;-62
2023/12/27 07:34:19;;;;;;;15.67;9.67;;;9.90;97.30;;;;;;5085323;28;20252;-61
2023/12/27 07:36:48;;;;;;;16.17;10.77;;;9.80;97.30;;;;;;5081513;28;20209;-61
2023/12/27 07:39:15;;;;;;;18.73;9.60;;;9.90;97.40;;;;;;5086011;28;20207;-61
2023/12/27 07:41:43;;;;;;;21.13;9.57;;;9.90;97.30;;;;;;5086923;28;20926;-62
2023/12/27 07:44:10;;;;;;;19.07;9.57;;;9.90;97.30;;;;;;5088129;28;20335;-61
2023/12/27 07:46:37;;;;;;;12.67;9.67;;;9.90;97.30;;;;;;5085326;28;20198;-61
2023/12/27 07:49:04;;;;;;;12.77;8.90;;;9.90;97.30;;;;;;5083291;28;20224;-62
2023/12/27 07:51:31;;;;;;;19.60;10.00;;;9.90;97.30;;;;;;5086142;28;20633;-60
2023/12/27 07:53:59;;;;;;;16.27;10.30;;;9.90;97.30;;;;;;5083872;28;20195;-62
2023/12/27 07:56:28;;;;;;;16.97;9.90;;;10.00;97.40;;;;;;5087124;28;20221;-61
2023/12/27 07:58:55;;;;;;;14.43;9.33;;;10.00;97.40;;;;;;5085776;28;20228;-61
2023/12/27 08:01:23;;;;;;;17.13;9.73;;;10.00;97.40;;;;;;5084901;28;20236;-63
2023/12/27 08:03:54;;;;;;;15.70;8.97;;;10.00;97.40;;;;;;5087156;28;20194;-61
2023/12/27 08:06:22;;;;;;;17.77;9.30;;;10.10;97.40;;;;;;5084433;28;20537;-61
2023/12/27 08:08:49;;;;;;;12.70;9.10;;;10.10;97.40;;;;;;5085719;28;20205;-62
2023/12/27 08:11:16;;;;;;;19.57;9.27;;;10.10;97.40;;;;;;5084629;28;20279;-62
2023/12/27 08:13:44;;;;;;;15.47;9.37;;;10.10;97.40;;;;;;5087771;28;20282;-62
2023/12/27 08:16:11;;;;;;;16.00;9.40;;;10.10;97.30;;;;;;5086319;28;20236;-61
2023/12/27 08:18:38;;;;;;;16.87;10.10;;;10.20;97.20;;;;;;5082567;28;20209;-62
2023/12/27 08:21:05;;;;;;;16.90;9.00;;;10.20;97.20;;;;;;5087996;28;20200;-62
2023/12/27 08:23:33;;;;;;;15.83;10.43;;;10.20;97.20;;;;;;5086473;28;20204;-62
2023/12/27 08:26:00;;;;;;;16.57;10.13;;;10.20;97.20;;;;;;5081575;28;20204;-62
2023/12/27 08:28:27;;;;;;;16.20;10.50;;;10.20;97.20;;;;;;5082849;28;20237;-62
2023/12/27 08:30:54;;;;;;;15.80;10.17;;;10.20;97.20;;;;;;5083766;28;20196;-62
2023/12/27 08:33:21;;;;;;;22.27;11.23;;;10.20;97.20;;;;;;5083637;28;20579;-62
2023/12/27 08:35:49;;;;;;;25.37;13.80;;;10.20;97.30;;;;;;5083378;28;20620;-62
2023/12/27 08:38:16;;;;;;;24.67;13.20;;;10.20;97.30;;;;;;5079237;28;20251;-62
2023/12/27 08:40:43;;;;;;;22.13;12.47;;;10.20;97.30;;;;;;5086089;28;20270;-61
2023/12/27 08:43:10;;;;;;;21.30;12.17;;;10.30;97.30;;;;;;5085643;28;20253;-61
2023/12/27 08:45:37;;;;;;;21.57;10.60;;;10.30;97.30;;;;;;5085738;28;20292;-61
2023/12/27 08:48:04;;;;;;;19.07;11.70;;;10.30;97.30;;;;;;5079553;28;20212;-61
2023/12/27 08:50:32;;;;;;;15.50;10.20;;;10.30;97.30;;;;;;5081212;28;20204;-62
2023/12/27 08:52:59;;;;;;;15.23;10.73;;;10.40;97.30;;;;;;5086214;28;20196;-62
2023/12/27 08:55:26;;;;;;;14.03;10.90;;;10.40;97.30;;;;;;5084315;28;20201;-62
2023/12/27 08:57:53;;;;;;;15.63;10.47;;;10.50;97.30;;;;;;5081700;28;20232;-62
2023/12/27 09:00:21;;;;;;;15.93;10.73;;;10.50;97.30;;;;;;5086195;28;20620;-61
2023/12/27 09:02:48;;;;;;;17.30;11.13;;;10.50;97.30;;;;;;5085307;28;20248;-61
2023/12/27 09:05:15;;;;;;;20.03;11.57;;;10.60;97.20;;;;;;5085850;28;20208;-61
2023/12/27 09:07:42;;;;;;;19.43;10.57;;;10.60;97.20;;;;;;5078433;28;20201;-61
2023/12/27 09:10:10;;;;;;;18.97;13.23;;;10.60;97.20;;;;;;5080663;28;20202;-61
2023/12/27 09:12:40;;;;;;;15.60;11.90;;;10.60;97.10;;;;;;5085995;28;20207;-62
2023/12/27 09:15:08;;;;;;;17.43;11.40;;;10.60;97.10;;;;;;5085937;28;20209;-61
2023/12/27 09:17:35;;;;;;;13.70;10.93;;;10.70;97.10;;;;;;5080699;28;20637;-62
2023/12/27 09:20:07;;;;;;;21.43;12.53;;;10.70;97.10;;;;;;5068857;28;20204;-61
2023/12/27 09:22:35;;;;;;;16.60;12.20;;;10.70;97.00;;;;;;5079868;28;20708;-61
2023/12/27 09:25:03;;;;;;;20.10;12.93;;;10.70;97.00;;;;;;5083470;28;20536;-61
2023/12/27 09:27:31;;;;;;;22.73;12.40;;;10.70;97.00;;;;;;5083843;28;20398;-61
2023/12/27 09:29:58;;;;;;;22.93;12.77;;;10.80;97.00;;;;;;5082336;28;20291;-61
2023/12/27 09:32:26;;;;;;;24.33;13.27;;;10.80;96.90;;;;;;5085043;28;20196;-61
2023/12/27 09:34:53;;;;;;;18.83;10.97;;;10.80;96.90;;;;;;5070745;28;20631;-62
2023/12/27 09:37:20;;;;;;;15.60;11.13;;;10.90;96.90;;;;;;5080431;28;20288;-60
2023/12/27 09:39:47;;;;;;;20.30;10.90;;;10.90;96.90;;;;;;5076304;28;20213;-61
2023/12/27 09:42:15;;;;;;;16.60;10.57;;;10.90;96.80;;;;;;5079998;28;20665;-61
2023/12/27 09:44:45;;;;;;;22.53;12.37;;;10.90;96.80;;;;;;5085499;28;20208;-61
2023/12/27 09:47:14;;;;;;;18.00;10.90;;;10.90;96.70;;;;;;5079760;28;20641;-61
2023/12/27 09:49:41;;;;;;;17.40;9.73;;;10.90;96.70;;;;;;5084327;28;20200;-60
2023/12/27 09:52:08;;;;;;;18.07;11.23;;;10.90;96.60;;;;;;5079841;28;20200;-61
2023/12/27 09:54:36;;;;;;;14.30;9.47;;;11.00;96.60;;;;;;5083834;28;20205;-62
2023/12/27 09:57:04;;;;;;;16.27;9.97;;;11.00;96.60;;;;;;5087364;28;20232;-62
2023/12/27 09:59:39;;;;;;;21.17;10.70;;;11.00;96.50;;;;;;5084035;28;20301;-62
2023/12/27 10:02:14;;;;;;;17.70;10.90;;;11.00;96.40;;;;;;5081320;28;20238;-61
2023/12/27 10:05:11;;;;;;;15.83;10.83;;;11.00;96.30;;;;;;5081715;28;20196;-61
2023/12/27 10:07:40;;;;;;;17.33;10.13;;;11.10;96.30;;;;;;5083822;28;20601;-60
2023/12/27 10:10:08;;;;;;;17.27;10.53;;;11.10;96.30;;;;;;5082310;28;20205;-61
2023/12/27 10:12:51;;;;;;;12.43;9.57;;;11.10;96.20;;;;;;5082555;28;20578;-61
2023/12/27 10:15:18;;;;;;;18.00;10.17;;;11.20;96.20;;;;;;5084208;28;20209;-61
2023/12/27 10:17:45;;;;;;;13.93;10.07;;;11.20;96.10;;;;;;5082822;28;20581;-60
2023/12/27 10:20:33;;;;;;;19.73;11.03;;;11.20;96.10;;;;;;5082282;28;20197;-61
2023/12/27 10:23:01;;;;;;;18.97;10.20;;;11.20;96.10;;;;;;5083863;28;20197;-62
2023/12/27 10:25:29;;;;;;;15.53;10.07;;;11.20;96.10;;;;;;5085378;28;20196;-61
2023/12/27 10:27:56;;;;;;;13.20;9.53;;;11.20;96.10;;;;;;5079108;28;20204;-60
2023/12/27 10:30:24;;;;;;;13.90;10.10;;;11.30;96.00;;;;;;5083500;28;20280;-62
2023/12/27 10:33:02;;;;;;;13.93;9.47;;;11.30;95.90;;;;;;5077626;28;20204;-61
2023/12/27 10:35:36;;;;;;;13.63;9.07;;;11.30;95.90;;;;;;5076216;28;20236;-62
2023/12/27 10:38:05;;;;;;;14.53;8.93;;;11.30;95.90;;;;;;5088000;28;20204;-62
2023/12/27 10:40:34;;;;;;;17.57;9.40;;;11.40;95.80;;;;;;5081738;28;20196;-62
2023/12/27 10:43:02;;;;;;;12.43;8.93;;;11.40;95.70;;;;;;5076314;28;20250;-62
2023/12/27 10:45:29;;;;;;;14.60;9.50;;;11.40;95.70;;;;;;5081489;28;20610;-62
2023/12/27 10:47:59;;;;;;;13.23;8.97;;;11.40;95.70;;;;;;5080227;28;20194;-62
2023/12/27 10:50:29;;;;;;;16.43;9.53;;;11.50;95.70;;;;;;5085375;28;20193;-61
2023/12/27 10:53:05;;;;;;;18.33;9.40;;;11.50;95.60;;;;;;5084255;28;20201;-61
2023/12/27 10:55:34;;;;;;;13.27;8.70;;;11.50;95.60;;;;;;5080374;28;20551;-62
2023/12/27 10:58:03;;;;;;;13.30;9.60;;;11.60;95.50;;;;;;5076852;28;20323;-61
2023/12/27 11:00:31;;;;;;;16.30;8.83;;;11.60;95.50;;;;;;5085056;28;20641;-62
2023/12/27 11:02:58;;;;;;;14.10;8.53;;;11.60;95.40;;;;;;5083629;28;20254;-61
2023/12/27 11:05:28;;;;;;;15.53;9.67;;;11.70;95.30;;;;;;5081969;28;20284;-62
2023/12/27 11:07:56;;;;;;;13.00;8.10;;;11.70;95.30;;;;;;5080397;28;20627;-62
2023/12/27 11:10:28;;;;;;;11.10;8.40;;;11.70;95.20;;;;;;5076475;28;20339;-62
2023/12/27 11:12:59;;;;;;;11.17;8.33;;;11.70;95.10;;;;;;5079441;28;20258;-62
2023/12/27 11:15:29;;;;;;;10.87;8.30;;;11.80;95.10;;;;;;5087906;28;20606;-62
2023/12/27 11:18:00;;;;;;;10.93;8.47;;;11.80;95.00;;;;;;5079048;28;20192;-61
2023/12/27 11:20:30;;;;;;;15.07;8.20;;;11.80;95.00;;;;;;5079094;28;20696;-62
2023/12/27 11:22:58;;;;;;;12.97;8.30;;;11.80;95.00;;;;;;5080587;28;20202;-62
2023/12/27 11:25:25;;;;;;;10.50;8.00;;;11.80;94.90;;;;;;5078858;28;20218;-62
2023/12/27 11:27:52;;;;;;;12.43;8.50;;;11.90;94.90;;;;;;5084600;28;20215;-62
2023/12/27 11:30:22;;;;;;;13.33;9.07;;;11.90;94.90;;;;;;5083008;28;20226;-61
2023/12/27 11:32:49;;;;;;;11.07;7.77;;;12.00;94.80;;;;;;5073635;28;20197;-61
2023/12/27 11:35:28;;;;;;;15.20;9.47;;;12.00;94.80;;;;;;5080137;28;20525;-62
2023/12/27 11:38:23;;;;;;;12.90;8.33;;;12.10;94.80;;;;;;5085352;28;20193;-62
2023/12/27 11:40:57;;;;;;;14.37;8.30;;;12.10;94.70;;;;;;5078069;28;20224;-62
2023/12/27 11:43:47;;;;;;;12.87;9.23;;;12.10;94.60;;;;;;5082560;28;20217;-62
2023/12/27 11:46:14;;;;;;;13.03;8.57;;;12.10;94.60;;;;;;5081331;28;20278;-62
2023/12/27 11:48:41;;;;;;;12.13;8.60;;;12.20;94.50;;;;;;5078384;28;20251;-62
2023/12/27 11:51:39;;;;;;;9.97;8.17;;;12.10;94.50;;;;;;5083425;28;20661;-62
2023/12/27 11:54:09;;;;;;;19.37;8.97;;;12.20;94.50;;;;;;5066737;28;20235;-61
2023/12/27 11:56:37;;;;;;;18.83;9.37;;;12.20;94.40;;;;;;5079607;28;20577;-62
2023/12/27 11:59:07;;;;;;;14.10;7.97;;;12.20;94.40;;;;;;5079726;28;20684;-62
2023/12/27 12:01:37;;;;;;;18.13;8.57;;;12.20;94.30;;;;;;5081593;28;20238;-62
2023/12/27 12:04:08;;;;;;;13.60;8.97;;;12.20;94.30;;;;;;5085797;28;20202;-62
2023/12/27 12:06:54;;;;;;;23.77;9.33;;;12.20;94.20;;;;;;5082933;28;20212;-62
2023/12/27 12:09:37;;;;;;;13.10;9.33;;;12.30;94.30;;;;;;5082140;28;20234;-62
2023/12/27 12:12:20;;;;;;;14.20;8.90;;;12.30;94.30;;;;;;5079125;28;20790;-62
2023/12/27 12:20:07;;;;;;;18.60;9.17;;;12.30;93.70;;;;;;5108928;27;20560;-78
2023/12/27 12:22:38;;;;;;;15.93;9.50;;;12.30;93.60;;;;;;5097971;28;20279;-78
2023/12/27 12:25:08;;;;;;;14.03;9.33;;;12.20;93.70;;;;;;5098658;28;20214;-79
2023/12/27 12:27:38;;;;;;;22.83;9.77;;;12.20;93.80;;;;;;5100641;28;20230;-78
2023/12/27 12:30:07;;;;;;;12.53;8.73;;;12.20;93.90;;;;;;5096189;28;20283;-78
2023/12/27 12:32:40;;;;;;;10.07;8.80;;;12.30;94.00;;;;;;5094028;28;20201;-78
2023/12/27 12:35:08;;;;;;;14.17;10.33;;;12.30;94.00;;;;;;5084739;28;20273;-78
2023/12/27 12:37:39;;;;;;;14.43;10.53;;;12.30;94.10;;;;;;5099210;28;20204;-79
2023/12/27 12:40:08;;;;;;;14.90;10.57;;;12.30;94.10;;;;;;5074830;28;20257;-79
2023/12/27 12:42:36;;;;;;;13.90;10.27;;;12.30;94.00;;;;;;5078574;28;20204;-80
2023/12/27 12:45:04;;;;;;;17.67;11.47;;;12.30;94.00;;;;;;5087721;28;20204;-79